createdAt,value
2019-04-27T00:00:41.349Z,10.97
2019-04-27T00:01:45.363Z,10.94
2019-04-27T00:02:43.530Z,10.90
2019-04-27T00:03:42.868Z,10.90
2019-04-27T00:04:42.870Z,10.89
2019-04-27T00:05:41.262Z,10.86
2019-04-27T00:06:42.976Z,10.83
2019-04-27T00:07:43.955Z,10.83
2019-04-27T00:08:43.031Z,10.84
2019-04-27T00:09:50.067Z,10.80
2019-04-27T00:10:43.676Z,10.77
2019-04-27T00:11:42.141Z,10.72
2019-04-27T00:12:42.800Z,10.72
2019-04-27T00:13:42.197Z,10.72
2019-04-27T00:14:41.178Z,10.72
2019-04-27T00:15:41.159Z,10.75
2019-04-27T00:16:47.048Z,10.71
2019-04-27T00:17:48.552Z,10.69
2019-04-27T00:18:45.160Z,10.68
2019-04-27T00:19:41.113Z,10.69
2019-04-27T00:20:41.111Z,10.71
2019-04-27T00:21:41.103Z,10.71
2019-04-27T00:22:41.058Z,10.69
2019-04-27T00:23:41.078Z,10.71
2019-04-27T00:24:41.478Z,10.71
2019-04-27T00:25:41.060Z,10.71
2019-04-27T00:26:41.016Z,10.71
2019-04-27T00:27:41.019Z,10.69
2019-04-27T00:28:41.013Z,10.69
2019-04-27T00:29:42.814Z,10.67
2019-04-27T00:30:40.996Z,10.65
2019-04-27T00:31:40.998Z,10.58
2019-04-27T00:32:40.976Z,10.55
2019-04-27T00:33:40.949Z,10.53
2019-04-27T00:34:43.023Z,10.48
2019-04-27T00:35:40.945Z,10.49
2019-04-27T00:36:40.921Z,10.48
2019-04-27T00:37:42.604Z,10.46
2019-04-27T00:38:40.891Z,10.46
2019-04-27T00:39:40.977Z,10.42
2019-04-27T00:40:40.865Z,10.33
2019-04-27T00:41:40.874Z,10.27
2019-04-27T00:42:40.880Z,10.23
2019-04-27T00:43:40.845Z,10.18
2019-04-27T00:44:42.876Z,10.13
2019-04-27T00:45:40.827Z,10.09
2019-04-27T00:46:40.832Z,10.09
2019-04-27T00:47:53.800Z,10.07
2019-04-27T00:48:43.234Z,10.07
2019-04-27T00:49:40.767Z,10.09
2019-04-27T00:50:40.761Z,10.05
2019-04-27T00:51:40.767Z,10.03
2019-04-27T00:52:40.759Z,10.02
2019-04-27T00:53:41.096Z,10.00
2019-04-27T00:54:40.728Z,9.99
2019-04-27T00:55:40.712Z,9.95
2019-04-27T00:56:40.704Z,9.90
2019-04-27T00:57:40.712Z,9.87
2019-04-27T00:58:41.148Z,9.87
2019-04-27T00:59:40.671Z,9.87
2019-04-27T01:00:40.643Z,9.80
2019-04-27T01:01:40.652Z,9.73
2019-04-27T01:02:40.620Z,9.67
2019-04-27T01:03:42.974Z,9.63
2019-04-27T01:04:40.620Z,9.62
2019-04-27T01:05:40.616Z,9.59
2019-04-27T01:06:40.628Z,9.58
2019-04-27T01:07:40.595Z,9.52
2019-04-27T01:08:40.580Z,9.52
2019-04-27T01:09:40.601Z,9.51
2019-04-27T01:10:40.560Z,9.48
2019-04-27T01:11:40.540Z,9.45
2019-04-27T01:12:40.547Z,9.44
2019-04-27T01:13:40.526Z,9.44
2019-04-27T01:14:40.635Z,9.44
2019-04-27T01:15:40.481Z,9.44
2019-04-27T01:16:40.502Z,9.45
2019-04-27T01:17:40.456Z,9.45
2019-04-27T01:18:40.468Z,9.44
2019-04-27T01:19:40.710Z,9.42
2019-04-27T01:20:40.443Z,9.39
2019-04-27T01:21:40.440Z,9.37
2019-04-27T01:22:40.425Z,9.36
2019-04-27T01:23:40.416Z,9.36
2019-04-27T01:24:40.763Z,9.34
2019-04-27T01:25:40.425Z,9.33
2019-04-27T01:26:40.381Z,9.30
2019-04-27T01:27:40.376Z,9.24
2019-04-27T01:28:40.342Z,9.21
2019-04-27T01:29:41.427Z,9.15
2019-04-27T01:30:40.346Z,9.11
2019-04-27T01:31:40.326Z,9.09
2019-04-27T01:32:40.314Z,9.03
2019-04-27T01:33:40.302Z,9.02
2019-04-27T01:34:40.782Z,9.00
2019-04-27T01:35:40.305Z,8.97
2019-04-27T01:36:40.279Z,8.93
2019-04-27T01:37:40.264Z,8.92
2019-04-27T01:38:41.016Z,8.89
2019-04-27T01:39:40.276Z,8.90
2019-04-27T01:40:40.249Z,8.87
2019-04-27T01:41:40.211Z,8.87
2019-04-27T01:42:40.198Z,8.86
2019-04-27T01:43:40.207Z,8.84
2019-04-27T01:44:40.213Z,8.81
2019-04-27T01:45:40.191Z,8.79
2019-04-27T01:46:40.162Z,8.81
2019-04-27T01:47:40.165Z,8.78
2019-04-27T01:48:40.146Z,8.79
2019-04-27T01:49:40.369Z,8.77
2019-04-27T01:50:40.110Z,8.74
2019-04-27T01:51:40.124Z,8.72
2019-04-27T01:52:40.103Z,8.74
2019-04-27T01:53:40.074Z,8.72
2019-04-27T01:54:41.130Z,8.74
2019-04-27T01:55:40.812Z,8.75
2019-04-27T01:56:40.086Z,8.75
2019-04-27T01:57:40.060Z,8.74
2019-04-27T01:58:40.039Z,8.74
2019-04-27T01:59:40.425Z,8.75
2019-04-27T02:00:40.006Z,8.75
2019-04-27T02:01:40.014Z,8.79
2019-04-27T02:02:39.989Z,8.82
2019-04-27T02:03:39.995Z,8.82
2019-04-27T02:04:40.439Z,8.82
2019-04-27T02:05:39.959Z,8.81
2019-04-27T02:06:39.957Z,8.79
2019-04-27T02:07:39.943Z,8.79
2019-04-27T02:08:40.391Z,8.78
2019-04-27T02:09:40.424Z,8.77
2019-04-27T02:10:39.892Z,8.77
2019-04-27T02:11:39.884Z,8.77
2019-04-27T02:12:39.891Z,8.75
2019-04-27T02:13:39.882Z,8.74
2019-04-27T02:14:39.949Z,8.74
2019-04-27T02:15:39.861Z,8.74
2019-04-27T02:16:39.844Z,8.72
2019-04-27T02:17:39.832Z,8.71
2019-04-27T02:18:40.173Z,8.68
2019-04-27T02:19:39.924Z,8.68
2019-04-27T02:20:39.821Z,8.68
2019-04-27T02:21:39.786Z,8.69
2019-04-27T02:22:39.784Z,8.74
2019-04-27T02:23:39.786Z,8.74
2019-04-27T02:24:39.763Z,8.77
2019-04-27T02:25:40.023Z,8.77
2019-04-27T02:26:39.967Z,8.81
2019-04-27T02:27:39.715Z,8.86
2019-04-27T02:28:39.724Z,8.86
2019-04-27T02:29:39.718Z,8.87
2019-04-27T02:30:40.962Z,8.84
2019-04-27T02:31:40.327Z,8.86
2019-04-27T02:32:39.876Z,8.87
2019-04-27T02:33:40.359Z,8.89
2019-04-27T02:34:39.937Z,8.90
2019-04-27T02:35:41.987Z,8.96
2019-04-27T02:36:39.632Z,8.96
2019-04-27T02:37:40.375Z,8.96
2019-04-27T02:38:40.558Z,8.99
2019-04-27T02:39:39.984Z,8.95
2019-04-27T02:40:42.664Z,8.93
2019-04-27T02:41:40.117Z,8.90
2019-04-27T02:42:42.114Z,8.90
2019-04-27T02:43:40.014Z,8.90
2019-04-27T02:44:40.441Z,8.89
2019-04-27T02:45:40.344Z,8.87
2019-04-27T02:46:39.756Z,8.82
2019-04-27T02:47:40.821Z,8.81
2019-04-27T02:48:52.988Z,8.79
2019-04-27T02:49:40.827Z,8.81
2019-04-27T02:50:40.058Z,8.84
2019-04-27T02:51:40.614Z,8.84
2019-04-27T02:52:40.426Z,8.86
2019-04-27T02:53:39.460Z,8.84
2019-04-27T02:54:40.089Z,8.82
2019-04-27T02:55:39.929Z,8.84
2019-04-27T02:56:40.479Z,8.81
2019-04-27T02:57:39.977Z,8.77
2019-04-27T02:58:40.618Z,8.74
2019-04-27T02:59:40.039Z,8.74
2019-04-27T03:00:39.978Z,8.74
2019-04-27T03:01:46.270Z,8.75
2019-04-27T03:02:40.463Z,8.74
2019-04-27T03:03:41.144Z,8.74
2019-04-27T03:04:40.045Z,8.74
2019-04-27T03:05:40.055Z,8.74
2019-04-27T03:06:40.040Z,8.71
2019-04-27T03:07:39.902Z,8.71
2019-04-27T03:08:42.236Z,8.71
2019-04-27T03:09:39.697Z,8.72
2019-04-27T03:10:40.139Z,8.77
2019-04-27T03:11:39.815Z,8.81
2019-04-27T03:12:42.008Z,8.84
2019-04-27T03:13:40.534Z,8.86
2019-04-27T03:14:40.429Z,8.87
2019-04-27T03:15:40.367Z,8.82
2019-04-27T03:16:39.741Z,8.82
2019-04-27T03:17:39.661Z,8.78
2019-04-27T03:18:40.333Z,8.78
2019-04-27T03:19:40.060Z,8.77
2019-04-27T03:20:40.291Z,8.78
2019-04-27T03:21:39.647Z,8.77
2019-04-27T03:22:39.815Z,8.75
2019-04-27T03:23:41.193Z,8.75
2019-04-27T03:24:39.451Z,8.75
2019-04-27T03:25:40.080Z,8.78
2019-04-27T03:26:41.782Z,8.75
2019-04-27T03:27:40.530Z,8.74
2019-04-27T03:28:40.116Z,8.75
2019-04-27T03:29:39.091Z,8.78
2019-04-27T03:30:42.346Z,8.79
2019-04-27T03:31:46.263Z,8.78
2019-04-27T03:32:42.925Z,8.75
2019-04-27T03:33:42.763Z,8.72
2019-04-27T03:34:41.905Z,8.69
2019-04-27T03:35:42.985Z,8.69
2019-04-27T03:36:39.602Z,8.74
2019-04-27T03:37:40.412Z,8.74
2019-04-27T03:38:39.710Z,8.72
2019-04-27T03:39:39.685Z,8.75
2019-04-27T03:40:40.381Z,8.74
2019-04-27T03:41:41.157Z,8.74
2019-04-27T03:42:40.234Z,8.75
2019-04-27T03:43:40.249Z,8.78
2019-04-27T03:44:39.774Z,8.77
2019-04-27T03:45:40.027Z,8.75
2019-04-27T03:46:39.811Z,8.78
2019-04-27T03:47:40.583Z,8.78
2019-04-27T03:48:40.819Z,8.78
2019-04-27T03:49:41.512Z,8.79
2019-04-27T03:50:39.894Z,8.78
2019-04-27T03:51:40.309Z,8.78
2019-04-27T03:52:39.726Z,8.77
2019-04-27T03:53:39.613Z,8.74
2019-04-27T03:54:40.083Z,8.74
2019-04-27T03:55:39.822Z,8.75
2019-04-27T03:56:39.573Z,8.75
2019-04-27T03:57:40.301Z,8.79
2019-04-27T03:58:39.601Z,8.78
2019-04-27T03:59:40.541Z,8.79
2019-04-27T04:00:39.894Z,8.82
2019-04-27T04:01:39.725Z,8.81
2019-04-27T04:02:40.540Z,8.84
2019-04-27T04:03:39.334Z,8.87
2019-04-27T04:04:40.521Z,8.87
2019-04-27T04:05:39.791Z,8.89
2019-04-27T04:06:39.904Z,8.89
2019-04-27T04:07:40.218Z,8.89
2019-04-27T04:08:39.664Z,8.92
2019-04-27T04:09:40.138Z,8.95
2019-04-27T04:10:39.112Z,8.97
2019-04-27T04:11:39.533Z,8.96
2019-04-27T04:12:39.997Z,8.97
2019-04-27T04:13:39.662Z,8.96
2019-04-27T04:14:42.454Z,8.93
2019-04-27T04:15:39.869Z,8.92
2019-04-27T04:16:39.450Z,8.97
2019-04-27T04:17:40.340Z,9.00
2019-04-27T04:18:39.661Z,9.03
2019-04-27T04:19:48.813Z,9.08
2019-04-27T04:20:40.394Z,9.08
2019-04-27T04:21:40.029Z,9.11
2019-04-27T04:22:40.333Z,9.13
2019-04-27T04:23:40.242Z,9.13
2019-04-27T04:24:39.766Z,9.12
2019-04-27T04:25:41.012Z,9.09
2019-04-27T04:26:40.261Z,9.12
2019-04-27T04:27:42.344Z,9.11
2019-04-27T04:28:39.653Z,9.11
2019-04-27T04:29:39.466Z,9.13
2019-04-27T04:30:40.258Z,9.16
2019-04-27T04:31:40.344Z,9.16
2019-04-27T04:32:39.505Z,9.19
2019-04-27T04:33:40.329Z,9.19
2019-04-27T04:34:39.928Z,9.21
2019-04-27T04:35:39.743Z,9.22
2019-04-27T04:36:39.365Z,9.24
2019-04-27T04:37:39.422Z,9.30
2019-04-27T04:38:40.188Z,9.36
2019-04-27T04:39:40.268Z,9.37
2019-04-27T04:40:40.094Z,9.39
2019-04-27T04:41:40.556Z,9.40
2019-04-27T04:42:39.693Z,9.44
2019-04-27T04:43:39.781Z,9.49
2019-04-27T04:44:40.032Z,9.55
2019-04-27T04:45:39.346Z,9.56
2019-04-27T04:46:39.913Z,9.58
2019-04-27T04:47:40.771Z,9.64
2019-04-27T04:48:40.294Z,9.69
2019-04-27T04:49:39.781Z,9.74
2019-04-27T04:50:39.783Z,9.80
2019-04-27T04:51:40.171Z,9.80
2019-04-27T04:52:39.726Z,9.82
2019-04-27T04:53:40.004Z,9.88
2019-04-27T04:54:40.702Z,9.91
2019-04-27T04:55:39.250Z,9.92
2019-04-27T04:56:39.275Z,9.94
2019-04-27T04:57:40.054Z,9.95
2019-04-27T04:58:39.270Z,9.95
2019-04-27T04:59:38.987Z,9.95
2019-04-27T05:00:40.062Z,9.97
2019-04-27T05:01:39.945Z,9.95
2019-04-27T05:02:39.615Z,9.97
2019-04-27T05:03:38.890Z,9.97
2019-04-27T05:04:39.070Z,9.94
2019-04-27T05:05:41.063Z,9.92
2019-04-27T05:06:38.993Z,9.91
2019-04-27T05:07:38.775Z,9.88
2019-04-27T05:08:39.374Z,9.92
2019-04-27T05:09:39.529Z,9.94
2019-04-27T05:10:39.536Z,9.95
2019-04-27T05:11:39.542Z,9.97
2019-04-27T05:12:38.767Z,9.99
2019-04-27T05:13:39.363Z,10.05
2019-04-27T05:14:38.886Z,10.07
2019-04-27T05:15:39.452Z,10.09
2019-04-27T05:16:39.073Z,10.10
2019-04-27T05:17:39.878Z,10.07
2019-04-27T05:18:39.405Z,10.09
2019-04-27T05:19:38.925Z,10.06
2019-04-27T05:20:39.526Z,10.09
2019-04-27T05:21:38.944Z,10.09
2019-04-27T05:22:39.334Z,10.15
2019-04-27T05:23:38.791Z,10.17
2019-04-27T05:24:39.360Z,10.20
2019-04-27T05:25:39.009Z,10.21
2019-04-27T05:26:39.576Z,10.21
2019-04-27T05:27:38.969Z,10.24
2019-04-27T05:28:38.366Z,10.24
2019-04-27T05:29:38.929Z,10.20
2019-04-27T05:30:39.058Z,10.21
2019-04-27T05:31:38.871Z,10.18
2019-04-27T05:32:39.315Z,10.13
2019-04-27T05:33:38.888Z,10.17
2019-04-27T05:34:39.351Z,10.18
2019-04-27T05:35:40.621Z,10.20
2019-04-27T05:36:41.678Z,10.20
2019-04-27T05:37:39.060Z,10.23
2019-04-27T05:38:39.911Z,10.24
2019-04-27T05:39:39.026Z,10.28
2019-04-27T05:40:39.660Z,10.28
2019-04-27T05:41:39.310Z,10.28
2019-04-27T05:42:39.377Z,10.24
2019-04-27T05:43:38.994Z,10.25
2019-04-27T05:44:41.400Z,10.25
2019-04-27T05:45:39.636Z,10.24
2019-04-27T05:46:39.515Z,10.25
2019-04-27T05:47:39.165Z,10.23
2019-04-27T05:48:38.912Z,10.24
2019-04-27T05:49:41.007Z,10.21
2019-04-27T05:50:43.485Z,10.20
2019-04-27T05:51:40.536Z,10.21
2019-04-27T05:52:38.658Z,10.24
2019-04-27T05:53:39.519Z,10.28
2019-04-27T05:54:38.549Z,10.30
2019-04-27T05:55:39.223Z,10.38
2019-04-27T05:56:39.069Z,10.43
2019-04-27T05:57:39.057Z,10.53
2019-04-27T05:58:39.076Z,10.57
2019-04-27T05:59:37.447Z,10.62
2019-04-27T06:00:39.282Z,10.67
2019-04-27T06:01:38.949Z,10.68
2019-04-27T06:02:37.406Z,10.68
2019-04-27T06:03:39.408Z,10.71
2019-04-27T06:04:39.346Z,10.76
2019-04-27T06:05:39.025Z,10.79
2019-04-27T06:06:37.393Z,10.84
2019-04-27T06:07:37.358Z,10.79
2019-04-27T06:08:39.263Z,10.79
2019-04-27T06:09:39.028Z,10.75
2019-04-27T06:10:38.656Z,10.77
2019-04-27T06:11:37.321Z,10.82
2019-04-27T06:12:37.303Z,10.75
2019-04-27T06:13:39.076Z,10.69
2019-04-27T06:14:37.274Z,10.71
2019-04-27T06:15:38.851Z,10.68
2019-04-27T06:16:39.213Z,10.61
2019-04-27T06:17:38.725Z,10.67
2019-04-27T06:18:39.225Z,10.61
2019-04-27T06:19:38.983Z,10.59
2019-04-27T06:20:50.356Z,10.53
2019-04-27T06:21:39.866Z,10.55
2019-04-27T06:22:38.902Z,10.61
2019-04-27T06:23:39.029Z,10.62
2019-04-27T06:24:37.178Z,10.62
2019-04-27T06:25:39.230Z,10.61
2019-04-27T06:26:37.140Z,10.57
2019-04-27T06:27:37.149Z,10.55
2019-04-27T06:28:39.599Z,10.57
2019-04-27T06:29:39.212Z,10.59
2019-04-27T06:30:39.038Z,10.59
2019-04-27T06:31:37.091Z,10.59
2019-04-27T06:32:37.087Z,10.61
2019-04-27T06:33:38.982Z,10.58
2019-04-27T06:34:38.935Z,10.61
2019-04-27T06:35:37.050Z,10.64
2019-04-27T06:36:38.582Z,10.58
2019-04-27T06:37:38.870Z,10.57
2019-04-27T06:38:37.120Z,10.58
2019-04-27T06:39:38.661Z,10.59
2019-04-27T06:40:36.998Z,10.57
2019-04-27T06:41:36.985Z,10.61
2019-04-27T06:42:36.986Z,10.62
2019-04-27T06:43:36.956Z,10.64
2019-04-27T06:44:36.996Z,10.64
2019-04-27T06:45:38.637Z,10.61
2019-04-27T06:46:38.544Z,10.67
2019-04-27T06:47:39.600Z,10.71
2019-04-27T06:48:36.935Z,10.75
2019-04-27T06:49:37.290Z,10.82
2019-04-27T06:50:36.885Z,10.79
2019-04-27T06:51:36.890Z,10.86
2019-04-27T06:52:36.871Z,10.82
2019-04-27T06:53:36.847Z,10.84
2019-04-27T06:54:38.855Z,10.83
2019-04-27T06:55:36.854Z,10.84
2019-04-27T06:56:38.774Z,10.92
2019-04-27T06:57:36.815Z,10.97
2019-04-27T06:58:36.814Z,11.07
2019-04-27T06:59:37.300Z,11.10
2019-04-27T07:00:36.786Z,11.01
2019-04-27T07:01:36.764Z,11.00
2019-04-27T07:02:36.751Z,10.97
2019-04-27T07:03:36.756Z,10.98
2019-04-27T07:04:36.804Z,11.02
2019-04-27T07:05:36.725Z,11.07
2019-04-27T07:06:36.738Z,11.00
2019-04-27T07:07:36.701Z,11.02
2019-04-27T07:08:36.713Z,11.01
2019-04-27T07:09:36.865Z,11.05
2019-04-27T07:10:36.660Z,11.10
2019-04-27T07:11:36.662Z,11.12
2019-04-27T07:12:38.684Z,11.12
2019-04-27T07:13:36.637Z,11.16
2019-04-27T07:14:50.323Z,11.20
2019-04-27T07:15:38.750Z,11.15
2019-04-27T07:16:36.637Z,11.18
2019-04-27T07:17:36.591Z,11.19
2019-04-27T07:18:36.597Z,11.23
2019-04-27T07:19:36.959Z,11.23
2019-04-27T07:20:36.587Z,11.18
2019-04-27T07:21:36.552Z,11.15
2019-04-27T07:22:36.546Z,11.18
2019-04-27T07:23:36.542Z,11.20
2019-04-27T07:24:36.980Z,11.19
2019-04-27T07:25:36.515Z,11.26
2019-04-27T07:26:36.488Z,11.27
2019-04-27T07:27:36.466Z,11.26
2019-04-27T07:28:36.490Z,11.26
2019-04-27T07:29:36.497Z,11.23
2019-04-27T07:30:36.447Z,11.27
2019-04-27T07:31:36.457Z,11.30
2019-04-27T07:32:36.496Z,11.31
2019-04-27T07:33:36.407Z,11.33
2019-04-27T07:34:36.418Z,11.26
2019-04-27T07:35:36.392Z,11.16
2019-04-27T07:36:36.383Z,11.20
2019-04-27T07:37:36.506Z,11.20
2019-04-27T07:38:36.341Z,11.22
2019-04-27T07:39:36.348Z,11.20
2019-04-27T07:40:39.296Z,11.22
2019-04-27T07:41:38.746Z,11.20
2019-04-27T07:42:36.314Z,11.26
2019-04-27T07:43:36.555Z,11.30
2019-04-27T07:44:36.323Z,11.30
2019-04-27T07:45:36.289Z,11.35
2019-04-27T07:46:36.266Z,11.40
2019-04-27T07:47:36.291Z,11.45
2019-04-27T07:48:36.610Z,11.49
2019-04-27T07:49:36.259Z,11.45
2019-04-27T07:50:36.258Z,11.45
2019-04-27T07:51:36.223Z,11.52
2019-04-27T07:52:38.037Z,11.58
2019-04-27T07:53:36.609Z,11.62
2019-04-27T07:54:36.200Z,11.65
2019-04-27T07:55:36.197Z,11.71
2019-04-27T07:56:36.193Z,11.78
2019-04-27T07:57:36.186Z,11.91
2019-04-27T07:58:36.611Z,11.91
2019-04-27T07:59:36.133Z,11.96
2019-04-27T08:00:36.116Z,12.02
2019-04-27T08:01:36.123Z,12.05
2019-04-27T08:02:36.145Z,12.12
2019-04-27T08:03:36.627Z,12.29
2019-04-27T08:04:36.079Z,12.23
2019-04-27T08:05:36.094Z,12.32
2019-04-27T08:06:36.064Z,12.40
2019-04-27T08:07:36.038Z,12.45
2019-04-27T08:08:36.125Z,12.50
2019-04-27T08:09:36.030Z,12.50
2019-04-27T08:10:36.015Z,12.54
2019-04-27T08:11:36.031Z,12.58
2019-04-27T08:12:36.015Z,12.66
2019-04-27T08:13:36.099Z,12.80
2019-04-27T08:14:35.983Z,12.88
2019-04-27T08:15:35.980Z,12.93
2019-04-27T08:16:35.939Z,13.11
2019-04-27T08:17:35.961Z,13.26
2019-04-27T08:18:36.183Z,13.31
2019-04-27T08:19:35.934Z,13.36
2019-04-27T08:20:35.950Z,13.33
2019-04-27T08:21:43.343Z,13.36
2019-04-27T08:22:38.779Z,13.31
2019-04-27T08:23:36.270Z,13.49
2019-04-27T08:24:35.870Z,13.65
2019-04-27T08:25:35.884Z,13.58
2019-04-27T08:26:35.856Z,13.50
2019-04-27T08:27:35.845Z,13.30
2019-04-27T08:28:36.250Z,13.30
2019-04-27T08:29:35.837Z,13.26
2019-04-27T08:30:35.825Z,13.13
2019-04-27T08:31:35.785Z,13.03
2019-04-27T08:32:35.765Z,13.01
2019-04-27T08:33:36.243Z,12.84
2019-04-27T08:34:35.769Z,12.69
2019-04-27T08:35:35.764Z,12.66
2019-04-27T08:36:35.750Z,12.70
2019-04-27T08:37:35.732Z,12.72
2019-04-27T08:38:35.746Z,12.69
2019-04-27T08:39:35.700Z,12.54
2019-04-27T08:40:35.695Z,12.32
2019-04-27T08:41:35.660Z,12.26
2019-04-27T08:42:35.705Z,12.36
2019-04-27T08:43:35.741Z,12.43
2019-04-27T08:44:35.631Z,12.58
2019-04-27T08:45:35.635Z,12.66
2019-04-27T08:46:35.650Z,12.88
2019-04-27T08:47:35.637Z,13.17
2019-04-27T08:48:37.018Z,13.52
2019-04-27T08:49:35.591Z,13.89
2019-04-27T08:50:37.787Z,14.19
2019-04-27T08:51:35.586Z,14.37
2019-04-27T08:52:35.566Z,14.30
2019-04-27T08:53:35.942Z,14.22
2019-04-27T08:54:35.539Z,14.18
2019-04-27T08:55:35.531Z,14.26
2019-04-27T08:56:35.515Z,14.23
2019-04-27T08:57:35.504Z,14.19
2019-04-27T08:58:35.932Z,14.07
2019-04-27T08:59:35.495Z,13.94
2019-04-27T09:00:35.485Z,13.71
2019-04-27T09:01:35.473Z,13.58
2019-04-27T09:02:44.536Z,13.60
2019-04-27T09:03:36.946Z,13.62
2019-04-27T09:04:35.415Z,13.60
2019-04-27T09:05:35.416Z,13.46
2019-04-27T09:06:37.483Z,13.28
2019-04-27T09:07:35.434Z,13.02
2019-04-27T09:08:35.432Z,12.95
2019-04-27T09:09:35.401Z,13.05
2019-04-27T09:10:35.370Z,13.30
2019-04-27T09:11:35.367Z,13.45
2019-04-27T09:12:35.349Z,13.75
2019-04-27T09:13:36.222Z,13.70
2019-04-27T09:14:35.330Z,13.64
2019-04-27T09:15:35.310Z,13.67
2019-04-27T09:16:35.304Z,13.65
2019-04-27T09:17:35.294Z,13.68
2019-04-27T09:18:35.539Z,13.93
2019-04-27T09:19:35.270Z,14.08
2019-04-27T09:20:35.269Z,13.87
2019-04-27T09:21:35.225Z,13.73
2019-04-27T09:22:35.234Z,13.76
2019-04-27T09:23:35.603Z,13.73
2019-04-27T09:24:35.193Z,13.73
2019-04-27T09:25:35.200Z,13.71
2019-04-27T09:26:35.188Z,13.85
2019-04-27T09:27:35.226Z,13.82
2019-04-27T09:28:35.629Z,13.87
2019-04-27T09:29:35.212Z,13.91
2019-04-27T09:30:35.198Z,13.89
2019-04-27T09:31:35.155Z,13.86
2019-04-27T09:32:35.129Z,13.60
2019-04-27T09:33:35.619Z,13.40
2019-04-27T09:34:36.643Z,13.52
2019-04-27T09:35:35.603Z,13.46
2019-04-27T09:36:35.083Z,13.49
2019-04-27T09:37:36.603Z,13.67
2019-04-27T09:38:35.804Z,13.80
2019-04-27T09:39:35.867Z,14.11
2019-04-27T09:40:36.064Z,14.16
2019-04-27T09:41:36.621Z,14.07
2019-04-27T09:42:38.148Z,13.93
2019-04-27T09:43:36.632Z,13.80
2019-04-27T09:44:36.909Z,13.67
2019-04-27T09:45:35.039Z,13.67
2019-04-27T09:46:36.389Z,13.57
2019-04-27T09:47:38.833Z,13.42
2019-04-27T09:48:36.190Z,13.45
2019-04-27T09:49:36.834Z,13.23
2019-04-27T09:50:36.052Z,13.37
2019-04-27T09:51:36.323Z,13.55
2019-04-27T09:52:35.849Z,13.70
2019-04-27T09:53:36.393Z,13.87
2019-04-27T09:54:36.587Z,13.85
2019-04-27T09:55:36.714Z,14.05
2019-04-27T09:56:36.357Z,14.22
2019-04-27T09:57:36.410Z,14.25
2019-04-27T09:58:36.522Z,14.22
2019-04-27T09:59:35.215Z,14.68
2019-04-27T10:00:36.386Z,15.02
2019-04-27T10:01:36.113Z,15.60
2019-04-27T10:02:36.505Z,16.05
2019-04-27T10:03:36.169Z,16.21
2019-04-27T10:04:35.619Z,16.74
2019-04-27T10:05:36.563Z,16.51
2019-04-27T10:06:36.332Z,16.65
2019-04-27T10:07:35.856Z,16.47
2019-04-27T10:08:36.567Z,16.49
2019-04-27T10:09:36.833Z,16.22
2019-04-27T10:10:34.738Z,15.94
2019-04-27T10:11:35.674Z,15.32
2019-04-27T10:12:36.883Z,15.00
2019-04-27T10:13:36.401Z,14.79
2019-04-27T10:14:34.739Z,14.53
2019-04-27T10:15:35.643Z,14.22
2019-04-27T10:16:36.484Z,14.15
2019-04-27T10:17:34.617Z,13.97
2019-04-27T10:18:34.613Z,14.01
2019-04-27T10:19:36.470Z,13.89
2019-04-27T10:20:38.453Z,13.76
2019-04-27T10:21:36.546Z,13.12
2019-04-27T10:22:41.208Z,12.54
2019-04-27T10:23:36.185Z,12.03
2019-04-27T10:24:35.850Z,11.65
2019-04-27T10:25:35.501Z,11.31
2019-04-27T10:26:36.119Z,10.97
2019-04-27T10:27:35.895Z,10.59
2019-04-27T10:28:35.458Z,10.46
2019-04-27T10:29:35.576Z,10.42
2019-04-27T10:30:35.831Z,10.24
2019-04-27T10:31:34.473Z,10.03
2019-04-27T10:32:36.126Z,9.76
2019-04-27T10:33:35.862Z,9.74
2019-04-27T10:34:34.953Z,9.87
2019-04-27T10:35:36.194Z,10.00
2019-04-27T10:36:35.649Z,10.07
2019-04-27T10:37:34.459Z,10.12
2019-04-27T10:38:35.950Z,10.23
2019-04-27T10:39:36.089Z,10.39
2019-04-27T10:40:34.908Z,10.51
2019-04-27T10:41:34.376Z,10.68
2019-04-27T10:42:35.862Z,10.80
2019-04-27T10:43:34.356Z,10.97
2019-04-27T10:44:35.562Z,10.98
2019-04-27T10:45:35.788Z,11.04
2019-04-27T10:46:34.338Z,11.19
2019-04-27T10:47:36.011Z,11.27
2019-04-27T10:48:34.299Z,11.26
2019-04-27T10:49:34.274Z,11.02
2019-04-27T10:50:36.072Z,10.87
2019-04-27T10:51:34.298Z,10.89
2019-04-27T10:52:34.261Z,10.90
2019-04-27T10:53:35.639Z,10.97
2019-04-27T10:54:34.263Z,11.00
2019-04-27T10:55:36.193Z,10.95
2019-04-27T10:56:35.952Z,10.77
2019-04-27T10:57:34.191Z,10.71
2019-04-27T10:58:35.552Z,10.75
2019-04-27T10:59:35.980Z,10.64
2019-04-27T11:00:34.548Z,10.69
2019-04-27T11:01:35.822Z,10.68
2019-04-27T11:02:34.212Z,10.69
2019-04-27T11:03:35.671Z,10.83
2019-04-27T11:04:35.918Z,10.77
2019-04-27T11:05:35.772Z,10.67
2019-04-27T11:06:34.108Z,10.67
2019-04-27T11:07:34.133Z,10.71
2019-04-27T11:08:34.117Z,10.68
2019-04-27T11:09:34.109Z,10.55
2019-04-27T11:10:36.074Z,10.55
2019-04-27T11:11:34.049Z,10.46
2019-04-27T11:12:34.050Z,10.51
2019-04-27T11:13:35.870Z,10.62
2019-04-27T11:14:34.023Z,10.86
2019-04-27T11:15:34.088Z,11.02
2019-04-27T11:16:35.677Z,11.16
2019-04-27T11:17:33.991Z,11.33
2019-04-27T11:18:33.973Z,11.52
2019-04-27T11:19:35.660Z,11.63
2019-04-27T11:20:34.026Z,11.59
2019-04-27T11:21:33.925Z,11.52
2019-04-27T11:22:33.941Z,11.59
2019-04-27T11:23:35.846Z,11.60
2019-04-27T11:24:33.964Z,11.67
2019-04-27T11:25:34.129Z,11.51
2019-04-27T11:26:33.915Z,11.65
2019-04-27T11:27:33.886Z,11.70
2019-04-27T11:28:33.881Z,11.65
2019-04-27T11:29:33.858Z,11.73
2019-04-27T11:30:34.147Z,11.71
2019-04-27T11:31:33.858Z,11.77
2019-04-27T11:32:33.861Z,11.77
2019-04-27T11:33:33.800Z,11.70
2019-04-27T11:34:33.838Z,11.73
2019-04-27T11:35:35.650Z,11.65
2019-04-27T11:36:35.538Z,11.73
2019-04-27T11:37:35.637Z,11.77
2019-04-27T11:38:33.769Z,11.88
2019-04-27T11:39:33.746Z,11.91
2019-04-27T11:40:34.199Z,11.76
2019-04-27T11:41:33.732Z,11.73
2019-04-27T11:42:33.732Z,11.88
2019-04-27T11:43:33.702Z,11.95
2019-04-27T11:44:33.722Z,12.05
2019-04-27T11:45:34.197Z,12.28
2019-04-27T11:46:33.691Z,12.51
2019-04-27T11:47:33.705Z,12.69
2019-04-27T11:48:33.662Z,12.94
2019-04-27T11:49:33.666Z,12.68
2019-04-27T11:50:35.642Z,12.53
2019-04-27T11:51:33.611Z,12.80
2019-04-27T11:52:33.612Z,12.81
2019-04-27T11:53:33.631Z,12.86
2019-04-27T11:54:33.607Z,12.98
2019-04-27T11:55:33.632Z,12.94
2019-04-27T11:56:33.712Z,12.81
2019-04-27T11:57:33.586Z,12.40
2019-04-27T11:58:34.944Z,12.25
2019-04-27T11:59:33.545Z,12.02
2019-04-27T12:00:33.535Z,11.80
2019-04-27T12:01:33.775Z,11.45
2019-04-27T12:02:33.522Z,11.12
2019-04-27T12:03:33.519Z,10.86
2019-04-27T12:04:33.475Z,10.59
2019-04-27T12:05:33.532Z,10.33
2019-04-27T12:06:35.445Z,10.25
2019-04-27T12:07:33.448Z,10.07
2019-04-27T12:08:33.467Z,9.97
2019-04-27T12:09:33.445Z,9.92
2019-04-27T12:10:33.464Z,9.91
2019-04-27T12:11:33.934Z,9.94
2019-04-27T12:12:33.434Z,9.88
2019-04-27T12:13:33.412Z,9.67
2019-04-27T12:14:33.383Z,9.63
2019-04-27T12:15:33.361Z,9.54
2019-04-27T12:16:33.884Z,9.51
2019-04-27T12:17:33.385Z,9.66
2019-04-27T12:18:33.358Z,9.84
2019-04-27T12:19:33.331Z,10.12
2019-04-27T12:20:33.326Z,10.69
2019-04-27T12:21:33.375Z,11.35
2019-04-27T12:22:33.329Z,11.88
2019-04-27T12:23:37.081Z,12.30
2019-04-27T12:24:35.610Z,12.43
2019-04-27T12:25:33.245Z,12.78
2019-04-27T12:26:33.454Z,12.86
2019-04-27T12:27:33.277Z,12.43
2019-04-27T12:28:33.228Z,11.93
2019-04-27T12:29:33.222Z,11.74
2019-04-27T12:30:33.221Z,11.53
2019-04-27T12:31:33.456Z,11.40
2019-04-27T12:32:33.200Z,11.35
2019-04-27T12:33:33.156Z,11.31
2019-04-27T12:34:33.163Z,11.26
2019-04-27T12:35:33.144Z,11.35
2019-04-27T12:36:33.558Z,11.65
2019-04-27T12:37:33.162Z,11.97
2019-04-27T12:38:33.128Z,12.36
2019-04-27T12:39:33.095Z,12.33
2019-04-27T12:40:33.110Z,12.44
2019-04-27T12:41:33.565Z,12.63
2019-04-27T12:42:33.070Z,12.69
2019-04-27T12:43:33.061Z,12.62
2019-04-27T12:44:33.052Z,12.63
2019-04-27T12:45:33.036Z,12.44
2019-04-27T12:46:33.511Z,12.30
2019-04-27T12:47:33.019Z,12.25
2019-04-27T12:48:33.015Z,12.17
2019-04-27T12:49:32.995Z,12.28
2019-04-27T12:50:33.002Z,12.43
2019-04-27T12:51:33.047Z,12.44
2019-04-27T12:52:32.989Z,12.62
2019-04-27T12:53:32.957Z,13.03
2019-04-27T12:54:32.942Z,13.20
2019-04-27T12:55:32.937Z,13.16
2019-04-27T12:56:32.935Z,13.28
2019-04-27T12:57:33.029Z,12.88
2019-04-27T12:58:32.884Z,12.88
2019-04-27T12:59:32.888Z,12.86
2019-04-27T13:00:32.904Z,12.88
2019-04-27T13:01:32.862Z,12.78